createdAt,value
2018-07-25T00:00:03.124Z,1015.14
2018-07-25T00:00:28.693Z,1015.15
2018-07-25T00:00:54.280Z,1015.2
2018-07-25T00:01:19.871Z,1015.15
2018-07-25T00:01:45.427Z,1015.15
2018-07-25T00:02:11.020Z,1015.15
2018-07-25T00:02:36.584Z,1015.17
2018-07-25T00:03:02.152Z,1015.17
2018-07-25T00:03:27.728Z,1015.12
2018-07-25T00:03:53.307Z,1015.13
2018-07-25T00:04:18.878Z,1015.17
2018-07-25T00:04:44.446Z,1015.17
2018-07-25T00:05:10.023Z,1015.19
2018-07-25T00:05:35.604Z,1015.17
2018-07-25T00:06:01.191Z,1015.21
2018-07-25T00:06:26.761Z,1015.15
2018-07-25T00:06:52.331Z,1015.18
2018-07-25T00:07:17.912Z,1015.19
2018-07-25T00:07:43.504Z,1015.15
2018-07-25T00:08:09.091Z,1015.18
2018-07-25T00:08:34.667Z,1015.14
2018-07-25T00:09:00.238Z,1015.15
2018-07-25T00:09:25.817Z,1015.16
2018-07-25T00:09:51.393Z,1015.13
2018-07-25T00:10:16.964Z,1015.12
2018-07-25T00:10:42.531Z,1015.15
2018-07-25T00:11:08.104Z,1015.17
2018-07-25T00:11:33.686Z,1015.13
2018-07-25T00:11:59.268Z,1015.1
2018-07-25T00:12:24.839Z,1015.1
2018-07-25T00:12:50.413Z,1015.09
2018-07-25T00:13:15.988Z,1015.11
2018-07-25T00:13:41.560Z,1015.11
2018-07-25T00:14:07.132Z,1015.11
2018-07-25T00:14:32.701Z,1015.12
2018-07-25T00:14:58.272Z,1015.15
2018-07-25T00:15:23.859Z,1015.16
2018-07-25T00:15:49.424Z,1015.12
2018-07-25T00:16:15.003Z,1015.12
2018-07-25T00:16:40.577Z,1015.11
2018-07-25T00:17:06.162Z,1015.14
2018-07-25T00:17:31.748Z,1015.11
2018-07-25T00:17:57.315Z,1015.12
2018-07-25T00:18:22.886Z,1015.16
2018-07-25T00:18:48.458Z,1015.14
2018-07-25T00:19:14.029Z,1015.12
2018-07-25T00:19:39.605Z,1015.13
2018-07-25T00:20:05.189Z,1015.15
2018-07-25T00:20:30.767Z,1015.13
2018-07-25T00:20:56.337Z,1015.12
2018-07-25T00:21:21.956Z,1015.14
2018-07-25T00:21:47.490Z,1015.16
2018-07-25T00:22:13.062Z,1015.16
2018-07-25T00:22:38.648Z,1015.17
2018-07-25T00:23:04.231Z,1015.15
2018-07-25T00:23:29.801Z,1015.18
2018-07-25T00:23:55.378Z,1015.16
2018-07-25T00:24:20.963Z,1015.16
2018-07-25T00:24:46.537Z,1015.13
2018-07-25T00:25:12.094Z,1015.13
2018-07-25T00:25:37.702Z,1015.15
2018-07-25T00:26:03.258Z,1015.15
2018-07-25T00:26:28.839Z,1015.15
2018-07-25T00:26:54.411Z,1015.14
2018-07-25T00:27:20.002Z,1015.14
2018-07-25T00:27:45.571Z,1015.17
2018-07-25T00:28:11.155Z,1015.17
2018-07-25T00:28:36.745Z,1015.12
2018-07-25T00:29:02.335Z,1015.17
2018-07-25T00:29:27.925Z,1015.15
2018-07-25T00:29:53.494Z,1015.12
2018-07-25T00:30:19.068Z,1015.15
2018-07-25T00:30:44.642Z,1015.15
2018-07-25T00:31:10.228Z,1015.14
2018-07-25T00:31:35.808Z,1015.13
2018-07-25T00:32:01.394Z,1015.16
2018-07-25T00:32:26.964Z,1015.13
2018-07-25T00:32:52.528Z,1015.15
2018-07-25T00:33:18.120Z,1015.11
2018-07-25T00:33:43.688Z,1015.16
2018-07-25T00:34:09.292Z,1015.12
2018-07-25T00:34:34.856Z,1015.13
2018-07-25T00:35:00.443Z,1015.1
2018-07-25T00:35:26.011Z,1015.13
2018-07-25T00:35:51.586Z,1015.1
2018-07-25T00:36:17.191Z,1015.15
2018-07-25T00:36:42.736Z,1015.12
2018-07-25T00:37:08.311Z,1015.1
2018-07-25T00:37:33.880Z,1015.12
2018-07-25T00:37:59.454Z,1015.11
2018-07-25T00:38:25.027Z,1015.09
2018-07-25T00:38:50.607Z,1015.09
2018-07-25T00:39:16.169Z,1015.1
2018-07-25T00:39:41.726Z,1015.11
2018-07-25T00:40:07.291Z,1015.08
2018-07-25T00:40:32.868Z,1015.09
2018-07-25T00:40:58.454Z,1015.11
2018-07-25T00:41:24.022Z,1015.11
2018-07-25T00:41:49.605Z,1015.11
2018-07-25T00:42:15.183Z,1015.17
2018-07-25T00:42:40.839Z,1015.18
2018-07-25T00:43:06.411Z,1015.17
2018-07-25T00:43:31.986Z,1015.15
2018-07-25T00:43:57.566Z,1015.15
2018-07-25T00:44:23.136Z,1015.15
2018-07-25T00:44:48.696Z,1015.16
2018-07-25T00:45:14.272Z,1015.12
2018-07-25T00:45:39.854Z,1015.16
2018-07-25T00:46:05.420Z,1015.13
2018-07-25T00:46:30.992Z,1015.14
2018-07-25T00:46:56.570Z,1015.14
2018-07-25T00:47:22.174Z,1015.16
2018-07-25T00:47:47.732Z,1015.17
2018-07-25T00:48:13.310Z,1015.17
2018-07-25T00:48:38.866Z,1015.17
2018-07-25T00:49:04.452Z,1015.15
2018-07-25T00:49:30.036Z,1015.14
2018-07-25T00:49:55.600Z,1015.17
2018-07-25T00:50:21.180Z,1015.15
2018-07-25T00:50:46.736Z,1015.17
2018-07-25T00:51:12.319Z,1015.15
2018-07-25T00:51:37.895Z,1015.16
2018-07-25T00:52:03.453Z,1015.16
2018-07-25T00:52:29.031Z,1015.17
2018-07-25T00:52:54.611Z,1015.15
2018-07-25T00:53:20.185Z,1015.15
2018-07-25T00:53:45.770Z,1015.16
2018-07-25T00:54:11.344Z,1015.16
2018-07-25T00:54:36.930Z,1015.11
2018-07-25T00:55:02.510Z,1015.15
2018-07-25T00:55:28.147Z,1015.16
2018-07-25T00:55:53.657Z,1015.17
2018-07-25T00:56:19.230Z,1015.19
2018-07-25T00:56:44.807Z,1015.16
2018-07-25T00:57:10.392Z,1015.21
2018-07-25T00:57:35.969Z,1015.16
2018-07-25T00:58:01.543Z,1015.15
2018-07-25T00:58:27.098Z,1015.14
2018-07-25T00:58:52.754Z,1015.19
2018-07-25T00:59:18.328Z,1015.15
2018-07-25T00:59:43.910Z,1015.2
2018-07-25T01:00:09.486Z,1015.16
2018-07-25T01:00:35.057Z,1015.2
2018-07-25T01:01:00.629Z,1015.15
2018-07-25T01:01:26.194Z,1015.19
2018-07-25T01:01:51.760Z,1015.18
2018-07-25T01:02:17.339Z,1015.16
2018-07-25T01:02:42.901Z,1015.23
2018-07-25T01:03:08.467Z,1015.18
2018-07-25T01:03:34.048Z,1015.16
2018-07-25T01:03:59.611Z,1015.17
2018-07-25T01:04:25.807Z,1015.15
2018-07-25T01:04:51.383Z,1015.15
2018-07-25T01:05:16.976Z,1015.13
2018-07-25T01:05:42.546Z,1015.16
2018-07-25T01:06:08.138Z,1015.14
2018-07-25T01:06:33.732Z,1015.15
2018-07-25T01:06:59.294Z,1015.14
2018-07-25T01:07:24.872Z,1015.11
2018-07-25T01:07:50.448Z,1015.17
2018-07-25T01:08:16.015Z,1015.19
2018-07-25T01:08:41.593Z,1015.14
2018-07-25T01:09:07.172Z,1015.13
2018-07-25T01:09:32.734Z,1015.18
2018-07-25T01:09:58.312Z,1015.12
2018-07-25T01:10:23.889Z,1015.15
2018-07-25T01:10:49.467Z,1015.15
2018-07-25T01:11:15.052Z,1015.16
2018-07-25T01:11:40.621Z,1015.12
2018-07-25T01:12:06.188Z,1015.17
2018-07-25T01:12:31.767Z,1015.18
2018-07-25T01:12:57.344Z,1015.18
2018-07-25T01:13:22.926Z,1015.15
2018-07-25T01:13:48.493Z,1015.15
2018-07-25T01:14:14.061Z,1015.15
2018-07-25T01:14:39.642Z,1015.14
2018-07-25T01:15:05.207Z,1015.17
2018-07-25T01:15:30.780Z,1015.18
2018-07-25T01:15:56.354Z,1015.18
2018-07-25T01:16:21.950Z,1015.17
2018-07-25T01:16:47.532Z,1015.16
2018-07-25T01:17:13.095Z,1015.2
2018-07-25T01:17:38.676Z,1015.22
2018-07-25T01:18:04.262Z,1015.18
2018-07-25T01:18:29.844Z,1015.19
2018-07-25T01:18:55.424Z,1015.19
2018-07-25T01:19:20.986Z,1015.15
2018-07-25T01:19:46.562Z,1015.21
2018-07-25T01:20:12.133Z,1015.2
2018-07-25T01:20:37.728Z,1015.22
2018-07-25T01:21:03.304Z,1015.23
2018-07-25T01:21:28.884Z,1015.18
2018-07-25T01:21:54.460Z,1015.2
2018-07-25T01:22:20.036Z,1015.21
2018-07-25T01:22:45.603Z,1015.2
2018-07-25T01:23:11.174Z,1015.18
2018-07-25T01:23:36.749Z,1015.17
2018-07-25T01:24:02.320Z,1015.15
2018-07-25T01:24:27.911Z,1015.16
2018-07-25T01:24:53.480Z,1015.14
2018-07-25T01:25:19.048Z,1015.18
2018-07-25T01:25:44.613Z,1015.16
2018-07-25T01:26:10.180Z,1015.17
2018-07-25T01:26:35.748Z,1015.21
2018-07-25T01:27:01.330Z,1015.17
2018-07-25T01:27:26.909Z,1015.18
2018-07-25T01:27:52.488Z,1015.19
2018-07-25T01:28:18.077Z,1015.22
2018-07-25T01:28:43.664Z,1015.24
2018-07-25T01:29:09.226Z,1015.21
2018-07-25T01:29:34.808Z,1015.25
2018-07-25T01:30:00.400Z,1015.24
2018-07-25T01:30:25.978Z,1015.26
2018-07-25T01:30:51.593Z,1015.21
2018-07-25T01:31:17.114Z,1015.18
2018-07-25T01:31:42.702Z,1015.21
2018-07-25T01:32:08.281Z,1015.18
2018-07-25T01:32:33.855Z,1015.26
2018-07-25T01:32:59.438Z,1015.22
2018-07-25T01:33:25.016Z,1015.25
2018-07-25T01:33:50.576Z,1015.21
2018-07-25T01:34:16.158Z,1015.22
2018-07-25T01:34:41.737Z,1015.26
2018-07-25T01:35:07.342Z,1015.24
2018-07-25T01:35:32.910Z,1015.28
2018-07-25T01:35:58.493Z,1015.24
2018-07-25T01:36:24.059Z,1015.27
2018-07-25T01:36:49.648Z,1015.29
2018-07-25T01:37:15.218Z,1015.24
2018-07-25T01:37:40.781Z,1015.28
2018-07-25T01:38:06.377Z,1015.28
2018-07-25T01:38:31.942Z,1015.26
2018-07-25T01:38:57.526Z,1015.27
2018-07-25T01:39:23.084Z,1015.25
2018-07-25T01:39:48.664Z,1015.3
2018-07-25T01:40:14.238Z,1015.26
2018-07-25T01:40:39.813Z,1015.28
2018-07-25T01:41:05.400Z,1015.27
2018-07-25T01:41:30.971Z,1015.24
2018-07-25T01:41:56.539Z,1015.27
2018-07-25T01:42:22.111Z,1015.25
2018-07-25T01:42:47.702Z,1015.27
2018-07-25T01:43:13.280Z,1015.28
2018-07-25T01:43:38.852Z,1015.26
2018-07-25T01:44:04.432Z,1015.28
2018-07-25T01:44:29.996Z,1015.26
2018-07-25T01:44:55.558Z,1015.28
2018-07-25T01:45:21.128Z,1015.25
2018-07-25T01:45:46.710Z,1015.28
2018-07-25T01:46:12.296Z,1015.28
2018-07-25T01:46:37.870Z,1015.25
2018-07-25T01:47:03.444Z,1015.24
2018-07-25T01:47:29.044Z,1015.26
2018-07-25T01:47:54.611Z,1015.25
2018-07-25T01:48:20.193Z,1015.27
2018-07-25T01:48:45.764Z,1015.3
2018-07-25T01:49:11.344Z,1015.26
2018-07-25T01:49:36.917Z,1015.28
2018-07-25T01:50:02.503Z,1015.28
2018-07-25T01:50:28.059Z,1015.25
2018-07-25T01:50:53.628Z,1015.3
2018-07-25T01:51:19.216Z,1015.28
2018-07-25T01:51:44.798Z,1015.26
2018-07-25T01:52:10.359Z,1015.28
2018-07-25T01:52:35.930Z,1015.25
2018-07-25T01:53:01.508Z,1015.27
2018-07-25T01:53:27.094Z,1015.24
2018-07-25T01:53:52.655Z,1015.25
2018-07-25T01:54:18.222Z,1015.27
2018-07-25T01:54:43.776Z,1015.25
2018-07-25T01:55:09.345Z,1015.28
2018-07-25T01:55:34.916Z,1015.27
2018-07-25T01:56:00.478Z,1015.3
2018-07-25T01:56:26.048Z,1015.32
2018-07-25T01:56:51.632Z,1015.3
2018-07-25T01:57:17.203Z,1015.26
2018-07-25T01:57:42.772Z,1015.29
2018-07-25T01:58:08.350Z,1015.33
2018-07-25T01:58:33.916Z,1015.3
2018-07-25T01:58:59.488Z,1015.33
2018-07-25T01:59:25.052Z,1015.32
2018-07-25T01:59:50.612Z,1015.35
2018-07-25T02:00:16.195Z,1015.34
2018-07-25T02:00:41.754Z,1015.35
2018-07-25T02:01:07.331Z,1015.35
2018-07-25T02:01:32.900Z,1015.32
2018-07-25T02:01:58.470Z,1015.34
2018-07-25T02:02:24.050Z,1015.3
2018-07-25T02:02:49.620Z,1015.3
2018-07-25T02:03:15.203Z,1015.31
2018-07-25T02:03:40.781Z,1015.29
2018-07-25T02:04:06.362Z,1015.32
2018-07-25T02:04:31.934Z,1015.33
2018-07-25T02:04:57.537Z,1015.27
2018-07-25T02:05:23.108Z,1015.28
2018-07-25T02:05:48.682Z,1015.29
2018-07-25T02:06:14.264Z,1015.34
2018-07-25T02:06:39.831Z,1015.34
2018-07-25T02:07:05.405Z,1015.3
2018-07-25T02:07:30.985Z,1015.29
2018-07-25T02:07:56.549Z,1015.28
2018-07-25T02:08:22.233Z,1015.33
2018-07-25T02:08:47.687Z,1015.32
2018-07-25T02:09:13.282Z,1015.31
2018-07-25T02:09:38.845Z,1015.35
2018-07-25T02:10:04.422Z,1015.31
2018-07-25T02:10:30.001Z,1015.32
2018-07-25T02:10:55.558Z,1015.35
2018-07-25T02:11:21.124Z,1015.33
2018-07-25T02:11:46.680Z,1015.33
2018-07-25T02:12:12.244Z,1015.33
2018-07-25T02:12:37.812Z,1015.34
2018-07-25T02:13:03.383Z,1015.3
2018-07-25T02:13:28.962Z,1015.33
2018-07-25T02:13:54.540Z,1015.34
2018-07-25T02:14:20.121Z,1015.32
2018-07-25T02:14:45.699Z,1015.29
2018-07-25T02:15:11.267Z,1015.32
2018-07-25T02:15:36.836Z,1015.31
2018-07-25T02:16:02.404Z,1015.32
2018-07-25T02:16:27.981Z,1015.34
2018-07-25T02:16:53.564Z,1015.35
2018-07-25T02:17:19.130Z,1015.35
2018-07-25T02:17:44.728Z,1015.31
2018-07-25T02:18:10.301Z,1015.31
2018-07-25T02:18:35.866Z,1015.35
2018-07-25T02:19:02.596Z,1015.36
2018-07-25T02:19:28.195Z,1015.34
2018-07-25T02:19:53.739Z,1015.33
2018-07-25T02:20:19.312Z,1015.37
2018-07-25T02:20:44.878Z,1015.32
2018-07-25T02:21:10.451Z,1015.35
2018-07-25T02:21:36.067Z,1015.32
2018-07-25T02:22:01.643Z,1015.31
2018-07-25T02:22:27.226Z,1015.37
2018-07-25T02:22:52.793Z,1015.33
2018-07-25T02:23:18.380Z,1015.31
2018-07-25T02:23:43.954Z,1015.33
2018-07-25T02:24:09.530Z,1015.32
2018-07-25T02:24:35.104Z,1015.32
2018-07-25T02:25:00.678Z,1015.33
2018-07-25T02:25:26.237Z,1015.32
2018-07-25T02:25:51.821Z,1015.32
2018-07-25T02:26:17.408Z,1015.32
2018-07-25T02:26:42.989Z,1015.3
2018-07-25T02:27:08.563Z,1015.33
2018-07-25T02:27:34.142Z,1015.31
2018-07-25T02:27:59.723Z,1015.3
2018-07-25T02:28:25.308Z,1015.34
2018-07-25T02:28:50.875Z,1015.32
2018-07-25T02:29:16.441Z,1015.33
2018-07-25T02:29:42.012Z,1015.28
2018-07-25T02:30:07.576Z,1015.31
2018-07-25T02:30:33.151Z,1015.28
2018-07-25T02:30:58.722Z,1015.29
2018-07-25T02:31:24.290Z,1015.31
2018-07-25T02:31:49.883Z,1015.3
2018-07-25T02:32:15.443Z,1015.33
2018-07-25T02:32:41.018Z,1015.32
2018-07-25T02:33:06.606Z,1015.32
2018-07-25T02:33:32.181Z,1015.31
2018-07-25T02:33:57.748Z,1015.28
2018-07-25T02:34:23.391Z,1015.3
2018-07-25T02:34:48.921Z,1015.3
2018-07-25T02:35:14.495Z,1015.34
2018-07-25T02:35:40.063Z,1015.33
2018-07-25T02:36:05.621Z,1015.35
2018-07-25T02:36:31.198Z,1015.34
2018-07-25T02:36:56.778Z,1015.31
2018-07-25T02:37:22.344Z,1015.32
2018-07-25T02:37:47.919Z,1015.33
2018-07-25T02:38:13.492Z,1015.38
2018-07-25T02:38:39.074Z,1015.35
2018-07-25T02:39:04.638Z,1015.35
2018-07-25T02:39:30.209Z,1015.39
2018-07-25T02:39:55.780Z,1015.34
2018-07-25T02:40:21.352Z,1015.34
2018-07-25T02:40:46.922Z,1015.33
2018-07-25T02:41:12.504Z,1015.34
2018-07-25T02:41:38.079Z,1015.34
2018-07-25T02:42:03.644Z,1015.36
2018-07-25T02:42:29.266Z,1015.36
2018-07-25T02:42:54.807Z,1015.33
2018-07-25T02:43:20.398Z,1015.35
2018-07-25T02:43:46.004Z,1015.29
2018-07-25T02:44:11.537Z,1015.35
2018-07-25T02:44:37.108Z,1015.34
2018-07-25T02:45:02.678Z,1015.35
2018-07-25T02:45:28.256Z,1015.36
2018-07-25T02:45:53.830Z,1015.35
2018-07-25T02:46:19.401Z,1015.36
2018-07-25T02:46:44.970Z,1015.34
2018-07-25T02:47:10.530Z,1015.32
2018-07-25T02:47:36.097Z,1015.36
2018-07-25T02:48:01.673Z,1015.38
2018-07-25T02:48:27.238Z,1015.38
2018-07-25T02:48:52.802Z,1015.38
2018-07-25T02:49:18.382Z,1015.38
2018-07-25T02:49:43.941Z,1015.34
2018-07-25T02:50:09.529Z,1015.37
2018-07-25T02:50:35.102Z,1015.39
2018-07-25T02:51:00.720Z,1015.38
2018-07-25T02:51:26.292Z,1015.38
2018-07-25T02:51:51.877Z,1015.37
2018-07-25T02:52:17.466Z,1015.37
2018-07-25T02:52:43.032Z,1015.39
2018-07-25T02:53:08.590Z,1015.36
2018-07-25T02:53:34.181Z,1015.33
2018-07-25T02:53:59.733Z,1015.38
2018-07-25T02:54:25.394Z,1015.34
2018-07-25T02:54:50.964Z,1015.38
2018-07-25T02:55:16.569Z,1015.38
2018-07-25T02:55:42.298Z,1015.41
2018-07-25T02:56:07.833Z,1015.38
2018-07-25T02:56:33.394Z,1015.36
2018-07-25T02:56:59.033Z,1015.4
2018-07-25T02:57:24.608Z,1015.41
2018-07-25T02:57:50.189Z,1015.4
2018-07-25T02:58:15.750Z,1015.4
2018-07-25T02:58:41.357Z,1015.42
2018-07-25T02:59:06.923Z,1015.42
2018-07-25T02:59:32.509Z,1015.44
2018-07-25T02:59:58.062Z,1015.41
2018-07-25T03:00:23.642Z,1015.42
2018-07-25T03:00:49.198Z,1015.46
2018-07-25T03:01:14.759Z,1015.43
2018-07-25T03:01:40.342Z,1015.41
2018-07-25T03:02:05.891Z,1015.43
2018-07-25T03:02:31.489Z,1015.46
2018-07-25T03:02:57.126Z,1015.47
2018-07-25T03:03:22.702Z,1015.42
2018-07-25T03:03:48.261Z,1015.45
2018-07-25T03:04:13.838Z,1015.44
2018-07-25T03:04:39.399Z,1015.46
2018-07-25T03:05:04.983Z,1015.43
2018-07-25T03:05:30.553Z,1015.46
2018-07-25T03:05:56.132Z,1015.44
2018-07-25T03:06:21.701Z,1015.43
2018-07-25T03:06:47.282Z,1015.42
2018-07-25T03:07:12.861Z,1015.43
2018-07-25T03:07:38.412Z,1015.46
2018-07-25T03:08:03.991Z,1015.44
2018-07-25T03:08:29.559Z,1015.46
2018-07-25T03:08:55.143Z,1015.45
2018-07-25T03:09:20.711Z,1015.46
2018-07-25T03:09:46.295Z,1015.43
2018-07-25T03:10:11.879Z,1015.42
2018-07-25T03:10:37.434Z,1015.44
2018-07-25T03:11:03.015Z,1015.45
2018-07-25T03:11:28.595Z,1015.45
2018-07-25T03:11:54.153Z,1015.45
2018-07-25T03:12:19.765Z,1015.47
2018-07-25T03:12:45.329Z,1015.48
2018-07-25T03:13:10.919Z,1015.44
2018-07-25T03:13:36.487Z,1015.46
2018-07-25T03:14:02.069Z,1015.47
2018-07-25T03:14:27.657Z,1015.45
2018-07-25T03:14:53.224Z,1015.46
2018-07-25T03:15:18.804Z,1015.48
2018-07-25T03:15:44.360Z,1015.5
2018-07-25T03:16:09.928Z,1015.51
2018-07-25T03:16:35.506Z,1015.49
2018-07-25T03:17:01.059Z,1015.51
2018-07-25T03:17:26.624Z,1015.52
2018-07-25T03:17:52.195Z,1015.49
2018-07-25T03:18:17.797Z,1015.5
2018-07-25T03:18:43.369Z,1015.51
2018-07-25T03:19:08.936Z,1015.49
2018-07-25T03:19:34.505Z,1015.52
2018-07-25T03:20:00.080Z,1015.5
2018-07-25T03:20:25.647Z,1015.51
2018-07-25T03:20:51.215Z,1015.49
2018-07-25T03:21:16.800Z,1015.49
2018-07-25T03:21:42.361Z,1015.47
2018-07-25T03:22:07.945Z,1015.51
2018-07-25T03:22:33.527Z,1015.51
2018-07-25T03:22:59.121Z,1015.47
2018-07-25T03:23:24.675Z,1015.5
2018-07-25T03:23:50.258Z,1015.5
2018-07-25T03:24:15.827Z,1015.56
2018-07-25T03:24:41.406Z,1015.53
2018-07-25T03:25:06.978Z,1015.52
2018-07-25T03:25:32.553Z,1015.53
2018-07-25T03:25:58.109Z,1015.53
2018-07-25T03:26:23.683Z,1015.52
2018-07-25T03:26:49.251Z,1015.52
2018-07-25T03:27:14.819Z,1015.57
2018-07-25T03:27:40.396Z,1015.56
2018-07-25T03:28:05.988Z,1015.56
2018-07-25T03:28:31.566Z,1015.52
2018-07-25T03:28:57.127Z,1015.56
2018-07-25T03:29:22.712Z,1015.58
2018-07-25T03:29:48.268Z,1015.51
2018-07-25T03:30:13.824Z,1015.53
2018-07-25T03:30:39.394Z,1015.53
2018-07-25T03:31:04.990Z,1015.53
2018-07-25T03:31:30.705Z,1015.52
2018-07-25T03:31:56.121Z,1015.52
2018-07-25T03:32:21.682Z,1015.53
2018-07-25T03:32:47.263Z,1015.52
2018-07-25T03:33:12.847Z,1015.55
2018-07-25T03:33:38.418Z,1015.54
2018-07-25T03:34:03.987Z,1015.54
2018-07-25T03:34:29.562Z,1015.5
2018-07-25T03:34:55.139Z,1015.51
2018-07-25T03:35:20.714Z,1015.52
2018-07-25T03:35:46.281Z,1015.52
2018-07-25T03:36:11.843Z,1015.51
2018-07-25T03:36:37.410Z,1015.52
2018-07-25T03:37:02.980Z,1015.51
2018-07-25T03:37:28.591Z,1015.53
2018-07-25T03:38:37.355Z,1015.56
2018-07-25T03:39:02.932Z,1015.55
2018-07-25T03:39:28.500Z,1015.56
2018-07-25T03:39:54.078Z,1015.58
2018-07-25T03:40:19.641Z,1015.57
2018-07-25T03:40:45.202Z,1015.55
2018-07-25T03:41:10.778Z,1015.57
2018-07-25T03:41:36.343Z,1015.58
2018-07-25T03:42:01.916Z,1015.6
2018-07-25T03:42:27.497Z,1015.6
2018-07-25T03:42:53.074Z,1015.63
2018-07-25T03:43:18.648Z,1015.63
2018-07-25T03:43:44.220Z,1015.59
2018-07-25T03:44:09.792Z,1015.64
2018-07-25T03:44:35.352Z,1015.64
2018-07-25T03:45:00.919Z,1015.69
2018-07-25T03:45:26.490Z,1015.65
2018-07-25T03:45:52.050Z,1015.65
2018-07-25T03:46:17.611Z,1015.63
2018-07-25T03:46:43.199Z,1015.64
2018-07-25T03:47:08.761Z,1015.66
2018-07-25T03:47:34.323Z,1015.65
2018-07-25T03:47:59.893Z,1015.67
2018-07-25T03:48:25.460Z,1015.67
2018-07-25T03:48:51.027Z,1015.65
2018-07-25T03:49:16.603Z,1015.64
2018-07-25T03:49:42.170Z,1015.66
2018-07-25T03:50:07.750Z,1015.71
2018-07-25T03:50:33.319Z,1015.71
2018-07-25T03:50:58.881Z,1015.71
2018-07-25T03:51:24.526Z,1015.68
2018-07-25T03:51:50.095Z,1015.69
2018-07-25T03:52:15.657Z,1015.69
2018-07-25T03:52:41.230Z,1015.67
2018-07-25T03:53:06.800Z,1015.67
2018-07-25T03:53:32.379Z,1015.71
2018-07-25T03:53:57.957Z,1015.69
2018-07-25T03:54:23.531Z,1015.71
2018-07-25T03:54:49.085Z,1015.67
2018-07-25T03:55:14.657Z,1015.69
2018-07-25T03:55:40.214Z,1015.7
2018-07-25T03:56:05.783Z,1015.72
2018-07-25T03:56:31.364Z,1015.71
2018-07-25T03:56:56.959Z,1015.7
2018-07-25T03:57:22.508Z,1015.67
2018-07-25T03:57:48.072Z,1015.69
2018-07-25T03:58:13.673Z,1015.7
2018-07-25T03:58:39.230Z,1015.72
2018-07-25T03:59:04.785Z,1015.7
2018-07-25T03:59:30.359Z,1015.68
2018-07-25T03:59:55.941Z,1015.67
2018-07-25T04:00:21.521Z,1015.65
2018-07-25T04:00:47.098Z,1015.65
2018-07-25T04:01:12.666Z,1015.69
2018-07-25T04:01:38.245Z,1015.66
2018-07-25T04:02:03.861Z,1015.66
2018-07-25T04:02:29.504Z,1015.64
2018-07-25T04:02:55.042Z,1015.64
2018-07-25T04:03:20.638Z,1015.68
2018-07-25T04:03:46.227Z,1015.67
2018-07-25T04:04:11.793Z,1015.71
2018-07-25T04:04:37.375Z,1015.71
2018-07-25T04:05:02.940Z,1015.67
2018-07-25T04:05:28.511Z,1015.67
2018-07-25T04:05:54.083Z,1015.72
2018-07-25T04:06:19.663Z,1015.71
2018-07-25T04:06:45.236Z,1015.72
2018-07-25T04:07:10.803Z,1015.72
2018-07-25T04:07:36.383Z,1015.73
2018-07-25T04:08:01.947Z,1015.71
2018-07-25T04:08:27.532Z,1015.78
2018-07-25T04:08:53.099Z,1015.72
2018-07-25T04:09:18.739Z,1015.77
2018-07-25T04:09:44.259Z,1015.69
2018-07-25T04:10:09.845Z,1015.73
2018-07-25T04:10:35.435Z,1015.74
2018-07-25T04:11:00.994Z,1015.72
2018-07-25T04:11:26.561Z,1015.76
2018-07-25T04:11:52.145Z,1015.74
2018-07-25T04:12:17.719Z,1015.79
2018-07-25T04:12:43.285Z,1015.76
2018-07-25T04:13:08.883Z,1015.76
2018-07-25T04:13:34.451Z,1015.75
2018-07-25T04:14:00.008Z,1015.78
2018-07-25T04:14:25.573Z,1015.73
2018-07-25T04:14:51.153Z,1015.8
2018-07-25T04:15:16.739Z,1015.79
2018-07-25T04:15:42.311Z,1015.76
2018-07-25T04:16:07.884Z,1015.79
2018-07-25T04:16:33.452Z,1015.77
2018-07-25T04:16:59.024Z,1015.79
2018-07-25T04:17:24.588Z,1015.81
2018-07-25T04:17:50.155Z,1015.78
2018-07-25T04:18:15.738Z,1015.77
2018-07-25T04:18:41.306Z,1015.76
2018-07-25T04:19:06.884Z,1015.78
2018-07-25T04:19:32.462Z,1015.79
2018-07-25T04:19:58.040Z,1015.78
2018-07-25T04:20:23.608Z,1015.78
2018-07-25T04:20:49.182Z,1015.79
2018-07-25T04:21:14.754Z,1015.81
2018-07-25T04:21:40.322Z,1015.8
2018-07-25T04:22:05.953Z,1015.78
2018-07-25T04:22:31.517Z,1015.8
2018-07-25T04:22:57.080Z,1015.8
2018-07-25T04:23:22.659Z,1015.78
2018-07-25T04:23:48.230Z,1015.79
2018-07-25T04:24:13.797Z,1015.8
2018-07-25T04:24:39.386Z,1015.79
2018-07-25T04:25:04.930Z,1015.81
2018-07-25T04:25:30.519Z,1015.76
2018-07-25T04:25:56.090Z,1015.78
2018-07-25T04:26:21.662Z,1015.83
2018-07-25T04:26:47.234Z,1015.79
2018-07-25T04:27:12.808Z,1015.81
2018-07-25T04:27:38.373Z,1015.78
2018-07-25T04:28:03.938Z,1015.79
2018-07-25T04:28:29.518Z,1015.79
2018-07-25T04:28:55.096Z,1015.78
2018-07-25T04:29:20.672Z,1015.81
2018-07-25T04:29:46.241Z,1015.79
2018-07-25T04:30:11.812Z,1015.79
2018-07-25T04:30:37.382Z,1015.81
2018-07-25T04:31:02.941Z,1015.82
2018-07-25T04:31:28.518Z,1015.81
2018-07-25T04:31:54.094Z,1015.83
2018-07-25T04:32:19.666Z,1015.8
2018-07-25T04:32:45.235Z,1015.82
2018-07-25T04:33:10.804Z,1015.83
2018-07-25T04:33:36.366Z,1015.78
2018-07-25T04:34:01.956Z,1015.78
2018-07-25T04:34:27.538Z,1015.82
2018-07-25T04:34:53.169Z,1015.83
2018-07-25T04:35:18.678Z,1015.82
2018-07-25T04:35:44.240Z,1015.8
2018-07-25T04:36:09.813Z,1015.81
2018-07-25T04:36:35.388Z,1015.8
2018-07-25T04:37:00.971Z,1015.8
2018-07-25T04:37:26.545Z,1015.79
2018-07-25T04:37:52.116Z,1015.8
2018-07-25T04:38:17.669Z,1015.84
2018-07-25T04:38:43.240Z,1015.81
2018-07-25T04:39:08.806Z,1015.79
2018-07-25T04:39:34.390Z,1015.83
2018-07-25T04:39:59.965Z,1015.82
2018-07-25T04:40:25.530Z,1015.84
2018-07-25T04:40:51.116Z,1015.87
2018-07-25T04:41:16.679Z,1015.85
2018-07-25T04:41:42.254Z,1015.83
2018-07-25T04:42:07.829Z,1015.81
2018-07-25T04:42:33.432Z,1015.85
2018-07-25T04:42:58.980Z,1015.85
2018-07-25T04:43:24.551Z,1015.86
2018-07-25T04:43:50.149Z,1015.82
2018-07-25T04:44:15.670Z,1015.88
2018-07-25T04:44:41.258Z,1015.85
2018-07-25T04:45:06.825Z,1015.87
2018-07-25T04:45:32.414Z,1015.84
2018-07-25T04:45:57.991Z,1015.86
2018-07-25T04:46:23.789Z,1015.85
2018-07-25T04:46:49.218Z,1015.86
2018-07-25T04:47:14.716Z,1015.9
2018-07-25T04:47:40.298Z,1015.88
2018-07-25T04:48:05.891Z,1015.88
2018-07-25T04:48:31.493Z,1015.89
2018-07-25T04:48:57.046Z,1015.91
2018-07-25T04:49:22.628Z,1015.88
2018-07-25T04:49:48.187Z,1015.91
2018-07-25T04:50:13.759Z,1015.9
2018-07-25T04:50:39.334Z,1015.93
2018-07-25T04:51:04.905Z,1015.93
2018-07-25T04:51:30.476Z,1015.93
2018-07-25T04:51:56.049Z,1015.91
2018-07-25T04:52:21.632Z,1015.92
2018-07-25T04:52:47.207Z,1015.92
2018-07-25T04:53:12.784Z,1015.92
2018-07-25T04:53:38.357Z,1015.92
2018-07-25T04:54:03.928Z,1015.93
2018-07-25T04:54:29.500Z,1015.93
2018-07-25T04:54:55.080Z,1015.91
2018-07-25T04:55:20.676Z,1015.9
2018-07-25T04:55:46.271Z,1015.9
2018-07-25T04:56:11.872Z,1015.9
2018-07-25T04:56:37.421Z,1015.89
2018-07-25T04:57:03.048Z,1015.94
2018-07-25T04:57:28.615Z,1015.95
2018-07-25T04:57:54.186Z,1015.96
2018-07-25T04:58:19.759Z,1015.96
2018-07-25T04:58:45.341Z,1015.94
2018-07-25T04:59:10.895Z,1015.91
2018-07-25T04:59:36.481Z,1015.95
2018-07-25T05:00:02.046Z,1015.95
2018-07-25T05:00:27.634Z,1015.96
2018-07-25T05:00:53.185Z,1015.98
2018-07-25T05:01:18.764Z,1015.98
2018-07-25T05:01:44.341Z,1015.98
2018-07-25T05:02:09.929Z,1016
2018-07-25T05:02:35.510Z,1016
2018-07-25T05:03:01.086Z,1016.03
2018-07-25T05:03:26.672Z,1016.04
2018-07-25T05:03:52.241Z,1015.99
2018-07-25T05:04:17.814Z,1016.01
2018-07-25T05:04:43.383Z,1016.02
2018-07-25T05:05:08.960Z,1016.03
2018-07-25T05:05:34.532Z,1016.01
2018-07-25T05:06:00.105Z,1016.02
2018-07-25T05:06:25.677Z,1016.01
2018-07-25T05:06:51.263Z,1016.01
2018-07-25T05:07:16.942Z,1016.01
2018-07-25T05:07:42.413Z,1015.99
2018-07-25T05:08:07.994Z,1016.01
2018-07-25T05:08:33.568Z,1016
2018-07-25T05:08:59.149Z,1015.98
2018-07-25T05:09:24.713Z,1016.01
2018-07-25T05:09:50.281Z,1015.99
2018-07-25T05:10:15.873Z,1015.98
2018-07-25T05:10:41.447Z,1016